Time;durP1;ratioP1;P1;durP2;ratioP2;P2;SDS_P1;SDS_P2;PMS_P1;PMS_P2;Temp;Humidity;BMP_temperature;BMP_pressure;BME280_temperature;BME280_humidity;BME280_pressure;Samples;Min_cycle;Max_cycle;Signal;HPM_P1;HPM_P2
2022/09/14 00:01:44;;;;;;;6.90;2.83;;;;;;;23.94;43.41;100463.75;5030946;28;20078;-69
2022/09/14 00:04:15;;;;;;;5.57;2.30;;;;;;;23.92;42.41;100465.56;5024603;28;20073;-69
2022/09/14 00:06:44;;;;;;;6.82;2.38;;;;;;;23.91;42.16;100461.19;5024200;28;20056;-70
2022/09/14 00:09:18;;;;;;;4.90;2.00;;;;;;;23.90;41.68;100459.47;5023767;28;20057;-70
2022/09/14 00:11:46;;;;;;;5.00;1.95;;;;;;;23.87;41.44;100462.22;5022082;28;20403;-69
2022/09/14 00:14:15;;;;;;;7.13;2.72;;;;;;;23.87;41.64;100462.22;5022621;28;20938;-70
2022/09/14 00:16:44;;;;;;;3.60;1.70;;;;;;;23.83;40.66;100455.28;5031247;28;20038;-69
2022/09/14 00:19:18;;;;;;;3.22;1.80;;;;;;;23.82;42.18;100457.06;5022119;28;20129;-69
2022/09/14 00:21:50;;;;;;;3.65;2.08;;;;;;;23.81;41.30;100454.47;5027315;28;20057;-70
2022/09/14 00:24:20;;;;;;;6.30;1.88;;;;;;;23.77;41.01;100452.81;5019487;28;20135;-70
2022/09/14 00:26:49;;;;;;;6.60;1.88;;;;;;;23.78;41.91;100460.69;5023969;28;20045;-69
2022/09/14 00:29:18;;;;;;;4.78;2.00;;;;;;;23.78;42.38;100457.19;5026122;28;20041;-68
2022/09/14 00:31:46;;;;;;;5.32;1.92;;;;;;;23.80;41.89;100464.16;5027617;28;20619;-68
2022/09/14 00:34:17;;;;;;;7.22;2.17;;;;;;;23.83;42.27;100463.19;5028821;28;20103;-68
2022/09/14 00:36:48;;;;;;;5.63;2.17;;;;;;;23.83;41.35;100468.47;5026271;28;20532;-70
2022/09/14 00:39:20;;;;;;;4.40;1.80;;;;;;;23.82;41.60;100461.44;5028893;28;20057;-70
2022/09/14 00:41:49;;;;;;;3.58;1.90;;;;;;;23.79;40.68;100469.47;5028268;28;20052;-70
2022/09/14 00:44:54;;;;;;;4.05;2.25;;;;;;;23.76;41.28;100477.50;5027722;28;20046;-70
2022/09/14 00:47:24;;;;;;;4.72;2.20;;;;;;;23.74;41.46;100474.00;5026780;28;20068;-69
2022/09/14 00:49:53;;;;;;;5.40;2.40;;;;;;;23.73;41.18;100472.25;5027152;28;20068;-71
2022/09/14 00:52:25;;;;;;;4.88;2.47;;;;;;;23.71;41.26;100471.44;5017317;28;20057;-70
2022/09/14 00:54:58;;;;;;;7.70;2.15;;;;;;;23.67;42.44;100472.47;5023007;28;20098;-69
2022/09/14 00:57:32;;;;;;;4.70;2.58;;;;;;;23.67;42.83;100472.47;5021449;28;20586;-69
2022/09/14 01:00:05;;;;;;;6.45;2.20;;;;;;;23.66;43.66;100473.34;5028884;28;20042;-70
2022/09/14 01:02:35;;;;;;;4.60;2.33;;;;;;;23.60;42.83;100477.06;5023817;28;20050;-70
2022/09/14 01:05:03;;;;;;;3.30;2.03;;;;;;;23.55;42.87;100471.91;5026988;28;20132;-71
2022/09/14 01:07:44;;;;;;;4.90;2.10;;;;;;;23.50;41.79;100471.19;5023309;28;21013;-70
2022/09/14 01:10:25;;;;;;;6.18;2.17;;;;;;;23.46;41.76;100474.81;5035620;28;20041;-69
2022/09/14 01:13:06;;;;;;;6.45;2.00;;;;;;;23.42;43.04;100476.66;5017142;28;20509;-68
2022/09/14 01:15:43;;;;;;;5.07;2.20;;;;;;;23.35;42.82;100471.59;5033028;28;20049;-69
2022/09/14 01:18:19;;;;;;;7.45;2.17;;;;;;;23.27;42.18;100482.34;5030472;28;20044;-69
2022/09/14 01:20:54;;;;;;;2.95;1.83;;;;;;;23.18;41.06;100478.22;5027761;28;20556;-68
2022/09/14 01:23:30;;;;;;;4.45;1.88;;;;;;;23.13;41.40;100488.00;5026017;28;20103;-70
2022/09/14 01:26:36;;;;;;;3.38;1.90;;;;;;;23.09;42.46;100475.81;5026044;28;20050;-69
2022/09/14 01:29:12;;;;;;;5.13;2.20;;;;;;;23.05;41.92;100484.72;5020371;28;20139;-69
2022/09/14 01:31:49;;;;;;;4.50;1.80;;;;;;;23.00;43.37;100482.19;5025828;28;20042;-69
2022/09/14 01:34:25;;;;;;;2.65;1.65;;;;;;;22.94;44.07;100484.09;5029816;28;20053;-69
2022/09/14 01:36:59;;;;;;;8.07;2.13;;;;;;;22.90;44.02;100485.06;4991925;28;20064;-70
2022/09/14 01:39:32;;;;;;;4.20;2.20;;;;;;;22.84;43.23;100479.94;4989421;28;20306;-69
2022/09/14 01:42:01;;;;;;;5.82;1.85;;;;;;;22.78;43.09;100481.84;4993492;28;20636;-69
2022/09/14 01:44:35;;;;;;;4.88;2.00;;;;;;;22.74;43.87;100481.97;4990070;28;20684;-68
2022/09/14 01:47:11;;;;;;;4.93;1.92;;;;;;;22.68;45.29;100475.09;4987637;28;20722;-69
2022/09/14 01:49:43;;;;;;;4.18;1.75;;;;;;;22.53;45.25;100473.69;4990335;28;20050;-69
2022/09/14 01:52:15;;;;;;;3.47;1.85;;;;;;;22.51;45.13;100477.25;4989990;28;20141;-70
2022/09/14 01:54:48;;;;;;;4.07;1.63;;;;;;;22.42;42.96;100475.69;4992462;28;20061;-69
2022/09/14 01:57:22;;;;;;;3.75;1.83;;;;;;;22.36;45.88;100486.41;4989306;28;20043;-69
2022/09/14 01:59:56;;;;;;;4.22;2.13;;;;;;;22.30;45.08;100479.50;4993653;28;20046;-70
2022/09/14 02:02:31;;;;;;;3.28;1.55;;;;;;;22.29;45.02;100485.69;4988922;28;20050;-70
2022/09/14 02:05:06;;;;;;;5.35;1.98;;;;;;;22.24;43.74;100486.69;4999610;28;20081;-69
2022/09/14 02:07:35;;;;;;;2.63;1.85;;;;;;;22.16;43.51;100485.06;4987439;28;20057;-69
2022/09/14 02:10:08;;;;;;;2.80;1.75;;;;;;;22.14;44.07;100488.63;4988650;28;20054;-68
2022/09/14 02:12:37;;;;;;;4.90;1.67;;;;;;;22.09;43.56;100495.78;4989761;28;20054;-67
2022/09/14 02:15:10;;;;;;;2.83;1.55;;;;;;;22.01;43.80;100488.03;4987422;28;20054;-68
2022/09/14 02:17:39;;;;;;;7.95;1.70;;;;;;;21.94;43.64;100489.94;4987086;28;20057;-68
2022/09/14 02:20:14;;;;;;;2.65;1.40;;;;;;;21.89;43.75;100489.16;4987958;28;20113;-68
2022/09/14 02:22:42;;;;;;;3.22;1.83;;;;;;;21.82;43.78;100497.25;4988379;28;20570;-68
2022/09/14 02:25:11;;;;;;;5.40;2.00;;;;;;;21.74;44.41;100486.88;4990059;28;20517;-67
2022/09/14 02:27:40;;;;;;;3.42;1.83;;;;;;;21.69;46.26;100493.97;4989180;28;20089;-70
2022/09/14 02:30:12;;;;;;;5.22;2.17;;;;;;;21.62;45.02;100495.00;4994603;28;20045;-70
2022/09/14 02:32:48;;;;;;;4.20;1.67;;;;;;;21.52;46.41;100494.34;4986847;28;20504;-70
2022/09/14 02:35:23;;;;;;;4.95;1.92;;;;;;;21.43;46.30;100500.63;5000051;28;20087;-71
2022/09/14 02:38:01;;;;;;;7.05;2.30;;;;;;;21.37;46.46;100503.34;5021120;28;20132;-70
2022/09/14 02:40:37;;;;;;;5.90;2.10;;;;;;;21.30;46.32;100505.25;5017797;28;20119;-69
2022/09/14 02:43:21;;;;;;;4.93;1.90;;;;;;;21.27;46.61;100504.44;5025253;28;20090;-70
2022/09/14 02:45:58;;;;;;;3.97;2.10;;;;;;;21.22;47.05;100501.03;5026569;28;20053;-69
2022/09/14 02:48:35;;;;;;;6.25;2.75;;;;;;;21.15;47.21;100507.28;5034493;28;20520;-70
2022/09/14 02:51:11;;;;;;;4.57;2.35;;;;;;;21.10;47.33;100508.25;5023305;28;20742;-70
2022/09/14 02:53:45;;;;;;;5.90;2.08;;;;;;;21.04;47.63;100508.34;5029428;28;20136;-70
2022/09/14 02:56:16;;;;;;;3.70;1.92;;;;;;;20.90;48.02;100495.44;5024938;28;20079;-71
2022/09/14 02:58:46;;;;;;;3.75;2.00;;;;;;;20.95;47.78;100516.38;5029121;28;20071;-69
2022/09/14 03:01:19;;;;;;;5.78;2.40;;;;;;;20.92;47.60;100522.56;5025022;28;20172;-70
2022/09/14 03:03:48;;;;;;;6.15;2.33;;;;;;;20.88;47.76;100512.13;5035750;28;20041;-70
2022/09/14 03:06:17;;;;;;;6.63;2.50;;;;;;;20.85;47.35;100517.44;5034511;28;20495;-69
2022/09/14 03:08:46;;;;;;;5.57;2.20;;;;;;;20.81;48.26;100519.25;5023276;28;20143;-70
2022/09/14 03:11:14;;;;;;;5.82;3.13;;;;;;;20.75;48.28;100529.84;5026334;28;20045;-70
2022/09/14 03:13:43;;;;;;;5.40;2.42;;;;;;;20.66;47.52;100527.38;5024617;28;20045;-70
2022/09/14 03:16:19;;;;;;;6.43;2.30;;;;;;;20.66;48.28;100533.53;5027131;28;20439;-70
2022/09/14 03:18:47;;;;;;;8.25;2.30;;;;;;;20.67;48.71;100530.00;5021897;28;20050;-71
2022/09/14 03:21:18;;;;;;;4.18;2.17;;;;;;;20.65;48.43;100534.41;5040120;28;20513;-70
2022/09/14 03:23:49;;;;;;;5.82;2.55;;;;;;;20.64;48.05;100534.44;5019197;28;20690;-70
2022/09/14 03:26:19;;;;;;;3.33;2.13;;;;;;;20.62;48.30;100536.22;5028897;28;20498;-71
2022/09/14 03:28:52;;;;;;;5.00;2.50;;;;;;;20.60;48.02;100540.63;5036920;28;20053;-70
2022/09/14 03:31:23;;;;;;;4.90;2.40;;;;;;;20.58;47.60;100540.66;5025590;28;20060;-70
2022/09/14 03:33:55;;;;;;;4.32;2.20;;;;;;;20.58;47.87;100538.03;5031210;28;20065;-70
2022/09/14 03:36:23;;;;;;;;;;;;;;;20.57;47.68;100543.28;5037222;28;20057;-70
2022/09/14 03:38:53;;;;;;;4.70;2.40;;;;;;;20.55;48.07;100543.31;5048072;28;19982;-73
2022/09/14 03:41:23;;;;;;;3.28;2.30;;;;;;;20.51;47.74;100545.09;5033677;28;20076;-72
2022/09/14 03:43:52;;;;;;;5.32;2.38;;;;;;;20.57;48.28;100545.91;5025896;28;20054;-73
2022/09/14 03:46:24;;;;;;;5.07;2.25;;;;;;;20.47;48.57;100542.53;5033159;28;20053;-73
2022/09/14 03:48:53;;;;;;;;;;;;;;;20.45;50.77;100539.06;5034271;28;20144;-74
2022/09/14 03:51:21;;;;;;;4.25;2.30;;;;;;;20.45;47.75;100552.19;5026778;28;20392;-72
2022/09/14 03:53:50;;;;;;;3.80;2.30;;;;;;;20.40;49.46;100554.88;5032806;28;20049;-71
2022/09/14 03:56:20;;;;;;;4.68;2.15;;;;;;;20.36;50.52;100555.81;5035896;28;20502;-70
2022/09/14 03:58:50;;;;;;;4.35;2.28;;;;;;;20.36;49.51;100557.59;5034012;28;20072;-72
2022/09/14 04:01:22;;;;;;;6.18;2.40;;;;;;;20.36;49.13;100554.94;5040343;28;20038;-72
2022/09/14 04:03:51;;;;;;;6.40;2.60;;;;;;;20.35;47.55;100558.50;5025224;28;20053;-73
2022/09/14 04:06:20;;;;;;;3.65;2.20;;;;;;;20.34;50.73;100556.72;5036202;28;20041;-72
2022/09/14 04:08:49;;;;;;;3.85;2.30;;;;;;;20.30;50.31;100566.44;5030896;28;20520;-71
2022/09/14 04:11:20;;;;;;;4.20;1.92;;;;;;;20.28;49.48;100563.81;5030492;28;20053;-73
2022/09/14 04:14:03;;;;;;;3.78;2.17;;;;;;;20.23;46.90;100555.13;5022796;28;20549;-70
2022/09/14 04:16:33;;;;;;;5.60;2.17;;;;;;;20.23;46.47;100564.78;5028759;28;20487;-73
2022/09/14 04:19:02;;;;;;;3.30;2.30;;;;;;;20.22;46.96;100558.63;5035191;28;20053;-71
2022/09/14 04:21:30;;;;;;;5.47;2.58;;;;;;;20.20;49.09;100562.19;5029004;28;20104;-71
2022/09/14 04:23:59;;;;;;;3.63;2.00;;;;;;;20.16;49.69;100557.84;5024143;28;20597;-72
2022/09/14 04:26:30;;;;;;;3.85;2.28;;;;;;;20.13;49.76;100564.00;5026080;28;20515;-70
2022/09/14 04:28:59;;;;;;;3.95;2.28;;;;;;;20.07;49.43;100561.47;5027712;28;20038;-71
2022/09/14 04:31:27;;;;;;;4.50;2.35;;;;;;;20.04;49.17;100562.41;5025377;28;20076;-71
2022/09/14 04:33:58;;;;;;;3.30;2.10;;;;;;;20.01;49.23;100561.56;5026956;28;20072;-72
2022/09/14 04:36:29;;;;;;;5.05;2.50;;;;;;;20.00;49.44;100558.06;5025641;28;20068;-70
2022/09/14 04:38:59;;;;;;;5.72;2.58;;;;;;;19.98;50.14;100553.72;5021455;28;20080;-72
2022/09/14 04:41:29;;;;;;;5.00;2.33;;;;;;;19.94;50.23;100552.88;5028127;28;20048;-71
2022/09/14 04:43:58;;;;;;;5.68;2.25;;;;;;;19.92;49.85;100553.78;5028945;28;20068;-73
2022/09/14 04:46:29;;;;;;;3.65;2.13;;;;;;;19.87;50.70;100546.81;5023561;28;20056;-71
2022/09/14 04:48:59;;;;;;;4.97;2.40;;;;;;;19.86;50.73;100550.34;5024968;28;20072;-72
2022/09/14 04:51:30;;;;;;;5.10;2.22;;;;;;;19.85;50.46;100547.75;5023777;28;20083;-73
2022/09/14 04:53:59;;;;;;;4.80;2.30;;;;;;;19.82;50.83;100543.41;5030633;28;20049;-71
2022/09/14 04:56:29;;;;;;;3.83;2.20;;;;;;;19.81;50.46;100552.19;5027772;28;20088;-70
2022/09/14 04:59:00;;;;;;;5.93;2.20;;;;;;;19.81;50.68;100546.03;5037367;28;20056;-70
2022/09/14 05:01:31;;;;;;;3.88;2.30;;;;;;;19.82;50.59;100546.03;5024060;28;20081;-70
2022/09/14 05:04:01;;;;;;;5.57;2.38;;;;;;;19.80;51.32;100545.16;5038979;28;20064;-71
2022/09/14 05:06:31;;;;;;;5.00;2.50;;;;;;;19.81;51.61;100546.03;5027472;28;20638;-71
2022/09/14 05:09:00;;;;;;;4.85;2.25;;;;;;;19.81;51.81;100541.66;5040570;28;20044;-71
2022/09/14 05:11:32;;;;;;;5.70;2.22;;;;;;;19.80;51.77;100542.53;5039577;28;20045;-71
2022/09/14 05:14:02;;;;;;;5.32;2.72;;;;;;;19.78;52.01;100546.94;5035179;28;20529;-72
2022/09/14 05:16:32;;;;;;;4.55;2.40;;;;;;;19.77;52.39;100545.22;5026389;28;20049;-71
2022/09/14 05:19:04;;;;;;;6.10;2.40;;;;;;;19.76;52.85;100542.59;5025828;28;20057;-70
2022/09/14 05:21:35;;;;;;;3.92;2.20;;;;;;;19.72;53.70;100544.38;5024656;28;20519;-71
2022/09/14 05:24:08;;;;;;;6.50;2.50;;;;;;;19.69;53.50;100541.78;5030571;28;20049;-73
2022/09/14 05:26:36;;;;;;;5.70;2.53;;;;;;;19.65;53.00;100546.19;5023413;28;20411;-70
2022/09/14 05:29:05;;;;;;;7.80;2.30;;;;;;;19.63;53.57;100544.44;5026622;28;20046;-72
2022/09/14 05:31:34;;;;;;;5.03;2.35;;;;;;;19.56;53.34;100543.66;5027179;28;20056;-72
2022/09/14 05:34:04;;;;;;;4.30;2.40;;;;;;;19.49;53.51;100547.22;5033168;28;20049;-73
2022/09/14 05:36:33;;;;;;;5.82;2.60;;;;;;;19.44;54.03;100549.91;5020959;28;20061;-71
2022/09/14 05:39:01;;;;;;;6.45;2.25;;;;;;;19.41;54.00;100552.56;5026155;28;20044;-74
2022/09/14 05:41:30;;;;;;;4.28;2.35;;;;;;;19.38;54.93;100549.97;5023654;28;20056;-70
2022/09/14 05:43:59;;;;;;;4.95;2.33;;;;;;;19.31;53.85;100545.69;5025698;28;20057;-71
2022/09/14 05:46:28;;;;;;;6.13;2.80;;;;;;;19.27;54.25;100543.97;5029537;28;20042;-71
2022/09/14 05:48:57;;;;;;;4.20;2.40;;;;;;;19.27;55.64;100553.59;5029877;28;20076;-71
2022/09/14 05:51:28;;;;;;;4.32;2.33;;;;;;;19.26;56.39;100552.69;5022493;28;20045;-71
2022/09/14 05:53:57;;;;;;;5.00;2.25;;;;;;;19.26;57.30;100547.44;5022276;28;20037;-70
2022/09/14 05:56:27;;;;;;;3.78;2.60;;;;;;;19.16;56.74;100535.31;5027686;28;20661;-71
2022/09/14 05:58:57;;;;;;;5.05;2.38;;;;;;;19.21;56.05;100550.13;5029973;28;20064;-71
2022/09/14 06:01:26;;;;;;;3.28;2.38;;;;;;;19.23;55.44;100542.25;5029782;28;20049;-72
2022/09/14 06:03:56;;;;;;;5.25;2.22;;;;;;;19.25;56.87;100545.72;5026508;28;20102;-71
2022/09/14 06:06:26;;;;;;;3.78;2.05;;;;;;;19.23;55.79;100547.50;5030721;28;20107;-71
2022/09/14 06:08:55;;;;;;;8.27;2.55;;;;;;;19.22;56.68;100540.53;5024474;28;20431;-73
2022/09/14 06:11:27;;;;;;;5.45;2.22;;;;;;;19.23;56.46;100542.25;5023583;28;20057;-72
2022/09/14 06:13:56;;;;;;;4.93;2.27;;;;;;;19.24;55.39;100549.22;5026438;28;20545;-72
2022/09/14 06:16:26;;;;;;;4.22;2.40;;;;;;;19.27;55.82;100545.72;5024929;28;20544;-73
2022/09/14 06:18:56;;;;;;;4.50;2.53;;;;;;;19.28;55.90;100545.69;5031702;28;20045;-72
2022/09/14 06:21:30;;;;;;;4.30;2.20;;;;;;;19.27;56.93;100543.97;5030714;28;20037;-71
2022/09/14 06:23:59;;;;;;;5.05;2.30;;;;;;;19.27;56.61;100551.84;5028423;28;20104;-72
2022/09/14 06:26:28;;;;;;;3.13;2.33;;;;;;;19.24;56.85;100544.88;5024002;28;20061;-71
2022/09/14 06:28:56;;;;;;;3.88;2.40;;;;;;;19.21;57.23;100551.88;5030858;28;20689;-71
2022/09/14 06:31:25;;;;;;;5.03;2.50;;;;;;;19.18;57.21;100549.28;5026852;28;20053;-72
2022/09/14 06:33:54;;;;;;;4.60;2.47;;;;;;;19.16;57.02;100551.91;5022196;28;20132;-71
2022/09/14 06:36:23;;;;;;;8.07;3.00;;;;;;;19.16;57.13;100557.16;5027844;28;20053;-72
2022/09/14 06:38:54;;;;;;;5.22;2.70;;;;;;;19.14;56.93;100555.44;5033230;28;20053;-71
2022/09/14 06:41:25;;;;;;;7.03;2.60;;;;;;;19.10;57.89;100553.72;5027690;28;20042;-71
2022/09/14 06:43:56;;;;;;;4.30;2.35;;;;;;;19.07;58.60;100548.53;5033472;28;20040;-72
2022/09/14 06:46:27;;;;;;;5.68;2.40;;;;;;;19.07;58.71;100548.53;5038275;28;20073;-72
2022/09/14 06:48:58;;;;;;;4.05;2.53;;;;;;;19.08;59.02;100548.53;5026019;28;20049;-71
2022/09/14 06:51:29;;;;;;;5.68;3.25;;;;;;;19.10;57.60;100551.97;5029890;28;20049;-71
2022/09/14 06:54:01;;;;;;;7.25;3.20;;;;;;;19.11;58.51;100547.63;5016564;28;20065;-71
2022/09/14 06:56:32;;;;;;;4.82;2.40;;;;;;;19.11;59.62;100558.09;5029969;28;20052;-71
2022/09/14 06:59:01;;;;;;;6.53;2.45;;;;;;;19.08;57.98;100553.75;5032725;28;20518;-72
2022/09/14 07:01:30;;;;;;;4.90;2.55;;;;;;;19.08;57.71;100559.00;5025351;28;20049;-72
2022/09/14 07:03:59;;;;;;;5.53;2.63;;;;;;;19.09;57.65;100554.63;5035465;28;20128;-72
2022/09/14 07:06:29;;;;;;;6.38;3.13;;;;;;;19.08;57.26;100559.00;5032097;28;20144;-72
2022/09/14 07:09:00;;;;;;;6.35;3.42;;;;;;;19.01;57.84;100552.03;5033654;28;20096;-70
2022/09/14 07:11:29;;;;;;;4.68;2.67;;;;;;;18.93;58.52;100551.25;5029370;28;20050;-72
2022/09/14 07:13:58;;;;;;;6.07;2.55;;;;;;;18.91;58.36;100546.03;5027418;28;20045;-71
2022/09/14 07:16:27;;;;;;;6.75;3.03;;;;;;;18.90;58.22;100553.88;5024534;28;20170;-69
2022/09/14 07:18:56;;;;;;;7.13;3.33;;;;;;;18.87;58.84;100549.53;5024860;28;20054;-70
2022/09/14 07:21:25;;;;;;;8.23;3.05;;;;;;;18.86;58.90;100547.81;5027834;28;20106;-71
2022/09/14 07:23:54;;;;;;;6.38;3.38;;;;;;;18.84;59.03;100558.31;5022212;28;20139;-70
2022/09/14 07:26:26;;;;;;;7.22;3.40;;;;;;;18.78;58.44;100549.63;5033202;28;20060;-71
2022/09/14 07:28:57;;;;;;;6.47;3.50;;;;;;;18.74;58.69;100555.75;5019843;28;20286;-71
2022/09/14 07:31:27;;;;;;;6.07;2.83;;;;;;;18.73;59.65;100556.63;5022505;28;20042;-72
2022/09/14 07:33:58;;;;;;;6.82;2.85;;;;;;;18.74;59.71;100555.75;5028222;28;20129;-71
2022/09/14 07:36:27;;;;;;;4.70;2.60;;;;;;;18.74;59.77;100553.13;5023136;28;20068;-71
2022/09/14 07:38:56;;;;;;;4.70;2.85;;;;;;;18.73;59.84;100556.63;5017818;28;20060;-70
2022/09/14 07:41:28;;;;;;;6.68;3.20;;;;;;;18.73;60.14;100562.72;5019113;28;20046;-70
2022/09/14 07:43:59;;;;;;;5.15;2.97;;;;;;;18.74;59.55;100563.63;5027154;28;20055;-71
2022/09/14 07:46:28;;;;;;;5.95;2.80;;;;;;;18.73;59.53;100561.84;5028395;28;20124;-70
2022/09/14 07:48:58;;;;;;;8.38;3.50;;;;;;;18.74;59.15;100558.38;5028522;28;20045;-71
2022/09/14 07:51:27;;;;;;;4.30;2.38;;;;;;;18.73;58.92;100556.63;5028516;28;20049;-71
2022/09/14 07:53:56;;;;;;;6.45;2.78;;;;;;;18.71;59.42;100559.22;5029955;28;20062;-72
2022/09/14 07:56:27;;;;;;;6.38;2.47;;;;;;;18.69;59.01;100555.78;5020973;28;20061;-70
2022/09/14 07:58:57;;;;;;;5.43;2.85;;;;;;;18.67;59.50;100560.16;5021199;28;20085;-71
2022/09/14 08:01:28;;;;;;;4.93;3.05;;;;;;;18.66;59.54;100554.91;5030808;28;20069;-71
2022/09/14 08:03:57;;;;;;;8.13;3.13;;;;;;;18.66;59.47;100554.91;5019336;28;20104;-71
2022/09/14 08:06:27;;;;;;;3.50;2.50;;;;;;;18.65;59.27;100555.81;5021325;28;20044;-71
2022/09/14 08:08:56;;;;;;;5.05;2.88;;;;;;;18.65;59.45;100553.19;5025577;28;20068;-71
2022/09/14 08:11:28;;;;;;;6.13;2.45;;;;;;;18.63;59.53;100555.81;5030272;28;20071;-70
2022/09/14 08:13:58;;;;;;;6.13;2.75;;;;;;;18.56;60.67;100554.97;5019266;28;20163;-70
2022/09/14 08:16:29;;;;;;;4.47;2.85;;;;;;;18.49;60.30;100552.41;5023788;28;20549;-71
2022/09/14 08:18:59;;;;;;;4.95;2.55;;;;;;;18.47;60.66;100555.03;5030802;28;20084;-71
2022/09/14 08:21:29;;;;;;;5.15;2.75;;;;;;;18.48;60.60;100554.16;5026084;28;20506;-72
2022/09/14 08:24:00;;;;;;;4.03;2.58;;;;;;;18.49;60.59;100552.41;5024507;28;20050;-71
2022/09/14 08:26:30;;;;;;;6.38;3.05;;;;;;;18.51;60.06;100555.88;5027946;28;20045;-70
2022/09/14 08:28:59;;;;;;;6.25;2.80;;;;;;;18.51;60.31;100556.78;5033199;28;20075;-71
2022/09/14 08:31:29;;;;;;;4.45;2.40;;;;;;;18.52;60.89;100558.50;5024461;28;20058;-71
2022/09/14 08:33:59;;;;;;;5.72;2.85;;;;;;;18.52;61.29;100563.72;5027494;28;20624;-71
2022/09/14 08:36:30;;;;;;;6.85;2.83;;;;;;;18.52;61.17;100555.00;5026854;28;20060;-71
2022/09/14 08:39:00;;;;;;;8.13;3.10;;;;;;;18.53;61.24;100555.00;5026249;28;20483;-71
2022/09/14 08:41:33;;;;;;;5.97;2.90;;;;;;;18.54;61.35;100553.25;5024985;28;20140;-71
2022/09/14 08:44:07;;;;;;;6.18;2.90;;;;;;;18.53;60.70;100557.63;5033301;28;20048;-71
2022/09/14 08:46:40;;;;;;;5.22;2.90;;;;;;;18.52;61.28;100558.50;5024366;28;20053;-71
2022/09/14 08:49:15;;;;;;;4.90;3.05;;;;;;;18.51;61.58;100556.78;5026365;28;20061;-71
2022/09/14 08:51:43;;;;;;;6.60;2.80;;;;;;;18.51;61.11;100556.78;5027723;28;20095;-72
2022/09/14 08:54:12;;;;;;;8.90;3.33;;;;;;;18.50;61.27;100549.78;5023604;28;20049;-72
2022/09/14 08:56:46;;;;;;;6.18;2.45;;;;;;;18.50;60.94;100544.53;5031779;28;20053;-71
2022/09/14 08:59:31;;;;;;;7.18;3.28;;;;;;;18.50;61.65;100555.00;5028917;28;20049;-70
2022/09/14 09:02:19;;;;;;;5.32;2.80;;;;;;;18.50;61.63;100556.78;5033152;28;20514;-70
2022/09/14 09:04:54;;;;;;;5.72;3.10;;;;;;;18.50;61.48;100560.25;5023617;28;20050;-70
2022/09/14 09:07:33;;;;;;;5.15;2.90;;;;;;;18.50;61.58;100562.88;5030476;28;20044;-70
2022/09/14 09:10:04;;;;;;;5.47;2.70;;;;;;;18.47;62.27;100557.66;5026286;28;20050;-70
2022/09/14 09:12:39;;;;;;;4.05;2.50;;;;;;;18.48;62.96;100561.16;5016014;28;20073;-70
2022/09/14 09:15:22;;;;;;;8.13;2.58;;;;;;;18.44;63.73;100565.56;5017349;28;20065;-71
2022/09/14 09:17:52;;;;;;;;;;;;;;;18.43;63.93;100561.19;5025488;28;20053;-70
2022/09/14 09:20:25;;;;;;;6.00;2.78;;;;;;;18.43;63.21;100553.31;5023975;28;20016;-70
2022/09/14 09:23:01;;;;;;;6.05;2.63;;;;;;;18.43;63.87;100553.31;5027392;28;20666;-72
2022/09/14 09:25:39;;;;;;;3.83;2.35;;;;;;;18.43;63.72;100559.41;5023632;28;20494;-71
2022/09/14 09:28:14;;;;;;;3.63;2.50;;;;;;;18.43;62.86;100563.78;5026513;28;20382;-71
2022/09/14 09:30:44;;;;;;;6.72;2.80;;;;;;;18.43;62.45;100561.19;5027090;28;20057;-71
2022/09/14 09:33:16;;;;;;;8.18;3.00;;;;;;;18.43;62.88;100550.69;5027019;28;20057;-71
2022/09/14 09:35:44;;;;;;;;;;;;;;;18.41;63.24;100560.31;5025565;28;20077;-71
2022/09/14 09:38:16;;;;;;;5.90;2.80;;;;;;;18.40;63.17;100559.44;5027816;28;19928;-71
2022/09/14 09:40:48;;;;;;;4.53;2.53;;;;;;;18.41;63.21;100552.44;5037435;28;20132;-71
2022/09/14 09:43:19;;;;;;;;;;;;;;;18.41;62.96;100555.94;5032071;28;20133;-71
2022/09/14 09:45:56;;;;;;;5.68;2.40;;;;;;;18.41;62.96;100562.94;5025370;28;19932;-71
2022/09/14 09:48:28;;;;;;;5.18;2.58;;;;;;;18.40;63.14;100561.19;5025842;28;20050;-71
2022/09/14 09:51:03;;;;;;;6.70;2.38;;;;;;;18.39;63.28;100555.09;5028389;28;20128;-71
2022/09/14 09:53:34;;;;;;;5.90;2.80;;;;;;;18.38;63.96;100560.34;5015409;28;20065;-71
2022/09/14 09:56:19;;;;;;;5.07;3.10;;;;;;;18.37;63.96;100561.19;5024768;28;20067;-72
2022/09/14 09:58:50;;;;;;;3.83;2.38;;;;;;;18.37;64.62;100558.56;5030742;28;20049;-71
2022/09/14 10:01:28;;;;;;;5.37;2.60;;;;;;;18.37;63.93;100566.44;5042638;28;20052;-72
2022/09/14 10:04:05;;;;;;;3.50;2.38;;;;;;;18.37;64.37;100569.06;5031327;28;20299;-72
2022/09/14 10:06:42;;;;;;;4.40;2.42;;;;;;;18.35;64.24;100565.59;5036284;28;20067;-71
2022/09/14 10:09:16;;;;;;;5.18;2.55;;;;;;;18.34;64.66;100556.84;5023920;28;20561;-72
2022/09/14 10:11:45;;;;;;;6.07;2.63;;;;;;;18.33;64.81;100562.97;5029477;28;20063;-71
2022/09/14 10:14:30;;;;;;;5.88;2.53;;;;;;;18.32;64.30;100565.59;5025054;28;20054;-70
2022/09/14 10:17:08;;;;;;;5.05;2.25;;;;;;;18.30;64.08;100569.97;5034098;28;20410;-70
2022/09/14 10:19:37;;;;;;;5.28;2.92;;;;;;;18.30;64.32;100568.25;5024450;28;20742;-71
2022/09/14 10:22:18;;;;;;;4.07;2.45;;;;;;;18.29;64.03;100568.25;5019435;28;20048;-71
2022/09/14 10:24:59;;;;;;;5.13;2.42;;;;;;;18.28;64.33;100566.50;5033295;28;20060;-71
2022/09/14 10:27:38;;;;;;;5.50;2.55;;;;;;;18.24;64.36;100568.28;5025349;28;20045;-71
2022/09/14 10:30:16;;;;;;;5.95;2.40;;;;;;;18.23;64.42;100574.38;5033855;28;20065;-72
2022/09/14 10:32:49;;;;;;;7.68;2.88;;;;;;;18.22;64.94;100575.25;5032468;28;20038;-71
2022/09/14 10:35:18;;;;;;;4.30;2.60;;;;;;;18.22;65.12;100572.63;5023529;28;20054;-71
2022/09/14 10:38:11;;;;;;;4.05;2.88;;;;;;;18.23;64.65;100576.13;5030936;28;20064;-72
2022/09/14 10:40:43;;;;;;;3.28;2.67;;;;;;;18.23;64.58;100570.88;5027151;28;20050;-71
2022/09/14 10:43:17;;;;;;;4.88;2.33;;;;;;;18.24;64.23;100572.66;5031777;28;20135;-71
2022/09/14 10:45:51;;;;;;;7.82;2.40;;;;;;;18.23;64.07;100570.88;5028576;28;20050;-71
2022/09/14 10:49:00;;;;;;;4.70;2.45;;;;;;;18.17;64.54;100558.72;5033080;28;20088;-71
2022/09/14 10:51:46;;;;;;;6.57;2.72;;;;;;;18.21;64.12;100569.16;5022012;28;20058;-71
2022/09/14 10:54:43;;;;;;;9.40;2.95;;;;;;;18.21;64.49;100574.41;5023785;28;20057;-71
2022/09/14 10:57:22;;;;;;;5.32;2.47;;;;;;;18.20;64.44;100571.78;5020455;28;20053;-71
2022/09/14 10:59:55;;;;;;;5.35;2.60;;;;;;;18.18;65.19;100576.16;5029633;28;20400;-72
2022/09/14 11:03:06;;;;;;;6.53;2.72;;;;;;;18.19;65.03;100575.28;5028665;28;20102;-71
2022/09/14 11:05:38;;;;;;;4.05;2.22;;;;;;;18.16;65.11;100575.28;4955001;28;20062;-72
2022/09/14 11:08:19;;;;;;;4.63;2.50;;;;;;;18.14;65.05;100580.53;4950413;28;20042;-71
2022/09/14 11:11:08;;;;;;;4.68;3.00;;;;;;;18.14;65.09;100577.94;4984713;28;20049;-70
2022/09/14 11:13:52;;;;;;;5.50;2.63;;;;;;;18.13;65.26;100581.41;5019535;28;20050;-72
2022/09/14 11:16:43;;;;;;;5.70;2.85;;;;;;;18.13;65.39;100578.78;5024447;28;20594;-72
2022/09/14 11:19:25;;;;;;;4.32;3.00;;;;;;;18.13;65.16;100580.53;5022934;28;20049;-72
2022/09/14 11:22:00;;;;;;;14.98;2.78;;;;;;;18.11;65.39;100582.28;5027698;28;20057;-71
2022/09/14 11:24:38;;;;;;;6.70;2.33;;;;;;;18.08;65.68;100577.94;5023735;28;20616;-71
2022/09/14 11:27:14;;;;;;;7.15;2.85;;;;;;;18.09;65.82;100573.56;5024945;28;20037;-72
2022/09/14 11:29:49;;;;;;;3.33;2.17;;;;;;;18.09;66.07;100582.28;5026154;28;20060;-71
2022/09/14 11:32:23;;;;;;;4.40;2.28;;;;;;;18.08;66.42;100585.78;5023087;28;20631;-71
2022/09/14 11:34:58;;;;;;;5.82;3.05;;;;;;;18.07;66.61;100593.66;5015193;28;20057;-71
2022/09/14 11:37:42;;;;;;;7.47;2.78;;;;;;;18.06;67.20;100587.53;5035021;28;20054;-71
2022/09/14 11:40:20;;;;;;;4.80;2.47;;;;;;;18.02;67.18;100584.94;5017217;28;20049;-71
2022/09/14 11:42:57;;;;;;;5.75;3.70;;;;;;;17.99;67.70;100584.06;5015756;28;20038;-71
2022/09/14 11:45:30;;;;;;;4.10;2.47;;;;;;;17.95;67.60;100587.56;5015826;28;20077;-72
2022/09/14 11:48:09;;;;;;;5.18;2.47;;;;;;;17.90;68.39;100593.72;5023988;28;20499;-71
2022/09/14 11:50:43;;;;;;;4.03;2.53;;;;;;;17.88;68.48;100598.94;5028294;28;20554;-70
2022/09/14 11:53:14;;;;;;;5.97;2.95;;;;;;;17.90;68.47;100593.72;5024845;28;20050;-71